createdAt,value
2022-10-17T00:01:16.085Z,1.48
2022-10-17T00:03:44.509Z,2.45
2022-10-17T00:06:15.396Z,2.20
2022-10-17T00:08:45.097Z,1.40
2022-10-17T00:11:17.796Z,2.03
2022-10-17T00:13:46.510Z,2.28
2022-10-17T00:16:17.197Z,1.90
2022-10-17T00:18:45.626Z,1.88
2022-10-17T00:21:17.925Z,2.58
2022-10-17T00:23:46.368Z,1.60
2022-10-17T00:26:15.705Z,1.40
2022-10-17T00:28:46.721Z,1.52
2022-10-17T00:31:18.272Z,2.33
2022-10-17T00:33:47.205Z,2.55
2022-10-17T00:36:19.389Z,2.17
2022-10-17T00:38:49.639Z,1.65
2022-10-17T00:41:21.230Z,2.38
2022-10-17T00:43:51.477Z,1.95
2022-10-17T00:46:23.637Z,2.15
2022-10-17T00:48:54.550Z,1.77
2022-10-17T00:51:29.756Z,1.88
2022-10-17T00:53:58.679Z,1.65
2022-10-17T00:56:27.640Z,1.70
2022-10-17T00:58:56.499Z,2.38
2022-10-17T01:01:26.664Z,2.10
2022-10-17T01:03:57.261Z,2.67
2022-10-17T01:06:25.680Z,1.83
2022-10-17T01:08:54.298Z,1.50
2022-10-17T01:11:33.905Z,1.35
2022-10-17T01:14:10.096Z,1.85
2022-10-17T01:16:52.001Z,1.98
2022-10-17T01:19:39.690Z,1.65
2022-10-17T01:22:13.968Z,1.20
2022-10-17T01:24:54.089Z,1.92
2022-10-17T01:31:03.869Z,1.70
2022-10-17T01:33:43.376Z,2.50
2022-10-17T01:36:16.422Z,2.53
2022-10-17T01:38:49.121Z,1.17
2022-10-17T01:41:27.968Z,1.95
2022-10-17T01:44:01.450Z,1.50
2022-10-17T01:46:36.965Z,1.23
2022-10-17T01:49:08.998Z,1.05
2022-10-17T01:51:42.155Z,1.23
2022-10-17T01:54:14.682Z,2.15
2022-10-17T01:56:45.712Z,1.38
2022-10-17T01:59:18.673Z,1.27
2022-10-17T02:01:52.085Z,1.50
2022-10-17T02:04:21.285Z,1.65
2022-10-17T02:06:49.691Z,1.90
2022-10-17T02:09:20.303Z,2.15
2022-10-17T02:12:02.080Z,1.65
2022-10-17T02:14:44.699Z,1.45
2022-10-17T02:17:28.082Z,1.63
2022-10-17T02:20:08.941Z,1.27
2022-10-17T02:22:42.901Z,0.88
2022-10-17T02:25:18.841Z,2.22
2022-10-17T02:27:53.740Z,1.30
2022-10-17T02:30:32.342Z,1.33
2022-10-17T02:33:08.117Z,1.70
2022-10-17T02:35:44.273Z,1.85
2022-10-17T02:38:14.745Z,1.35
2022-10-17T02:40:45.664Z,1.88
2022-10-17T02:43:15.341Z,1.45
2022-10-17T02:45:43.776Z,2.28
2022-10-17T02:48:20.308Z,2.25
2022-10-17T02:50:58.938Z,2.17
2022-10-17T02:53:33.585Z,1.30
2022-10-17T02:56:09.871Z,2.13
2022-10-17T02:58:40.567Z,1.88
2022-10-17T03:01:09.719Z,1.77
2022-10-17T03:03:39.664Z,2.00
2022-10-17T03:06:08.081Z,1.30
2022-10-17T03:11:10.019Z,1.25
2022-10-17T03:13:39.867Z,2.30
2022-10-17T03:16:09.109Z,1.10
2022-10-17T03:18:40.921Z,1.10
2022-10-17T03:21:09.729Z,2.70
2022-10-17T03:23:38.234Z,2.10
2022-10-17T03:26:08.486Z,1.67
2022-10-17T03:28:37.570Z,1.25
2022-10-17T03:31:10.402Z,1.67
2022-10-17T03:33:41.321Z,1.67
2022-10-17T03:36:12.449Z,1.70
2022-10-17T03:38:40.920Z,1.15
2022-10-17T03:41:10.110Z,1.20
2022-10-17T03:43:40.478Z,1.90
2022-10-17T03:46:09.783Z,1.17
2022-10-17T03:48:39.161Z,1.40
2022-10-17T03:51:10.856Z,1.77
2022-10-17T03:53:53.051Z,2.30
2022-10-17T03:56:23.814Z,1.30
2022-10-17T03:58:58.872Z,1.35
2022-10-17T04:01:28.687Z,1.45
2022-10-17T04:03:58.247Z,1.23
2022-10-17T04:06:32.156Z,1.00
2022-10-17T04:09:01.409Z,1.60
2022-10-17T04:11:38.252Z,1.23
2022-10-17T04:14:06.768Z,1.67
2022-10-17T04:16:35.209Z,1.38
2022-10-17T04:19:14.035Z,2.25
2022-10-17T04:21:47.726Z,1.38
2022-10-17T04:24:16.933Z,1.90
2022-10-17T04:26:56.950Z,1.58
2022-10-17T04:29:29.165Z,0.90
2022-10-17T04:32:07.689Z,1.67
2022-10-17T04:34:49.917Z,1.25
2022-10-17T04:37:20.744Z,1.95
2022-10-17T04:39:51.405Z,1.25
2022-10-17T04:42:19.868Z,1.92
2022-10-17T04:44:49.003Z,5.43
2022-10-17T04:47:19.686Z,1.40
2022-10-17T04:49:48.261Z,4.07
2022-10-17T04:52:17.866Z,2.17
2022-10-17T04:54:50.951Z,5.03
2022-10-17T04:57:20.484Z,1.52
2022-10-17T05:00:06.525Z,1.83
2022-10-17T05:02:58.030Z,1.35
2022-10-17T05:05:27.973Z,1.50
2022-10-17T05:07:57.598Z,2.13
2022-10-17T05:10:31.531Z,2.60
2022-10-17T05:13:00.528Z,5.90
2022-10-17T05:15:32.461Z,3.10
2022-10-17T05:18:01.043Z,2.35
2022-10-17T05:20:31.011Z,1.50
2022-10-17T05:23:00.491Z,1.88
2022-10-17T05:25:35.017Z,2.08
2022-10-17T05:28:03.419Z,4.93
2022-10-17T05:30:35.226Z,2.60
2022-10-17T05:33:08.370Z,2.45
2022-10-17T05:35:37.401Z,3.15
2022-10-17T05:38:07.345Z,2.95
2022-10-17T05:40:39.370Z,3.85
2022-10-17T05:43:07.809Z,2.17
2022-10-17T05:45:37.633Z,1.50
2022-10-17T05:48:08.965Z,4.05
2022-10-17T05:50:37.512Z,3.13
2022-10-17T05:53:11.776Z,1.48
2022-10-17T05:55:47.278Z,2.10
2022-10-17T05:58:22.300Z,2.25
2022-10-17T06:01:03.655Z,3.00
2022-10-17T06:06:05.830Z,2.05
2022-10-17T06:08:34.987Z,1.27
2022-10-17T06:11:07.633Z,0.93
2022-10-17T06:13:38.969Z,1.15
2022-10-17T06:16:13.509Z,1.73
2022-10-17T06:18:41.955Z,0.70
2022-10-17T06:21:12.454Z,0.80
2022-10-17T06:23:46.404Z,0.63
2022-10-17T06:26:28.486Z,0.55
2022-10-17T06:28:57.236Z,0.45
2022-10-17T06:31:26.814Z,0.65
2022-10-17T06:33:55.382Z,2.15
2022-10-17T06:36:24.462Z,0.52
2022-10-17T06:38:53.102Z,0.40
2022-10-17T06:41:41.173Z,0.43
2022-10-17T06:44:11.231Z,0.65
2022-10-17T06:46:50.633Z,0.52
2022-10-17T06:49:19.968Z,0.95
2022-10-17T06:51:53.721Z,0.35
2022-10-17T06:54:29.245Z,0.60
2022-10-17T06:57:27.151Z,1.33
2022-10-17T07:00:23.313Z,0.93
2022-10-17T07:05:25.125Z,1.60
2022-10-17T07:07:53.666Z,0.60
2022-10-17T07:10:22.148Z,1.85
2022-10-17T07:12:51.993Z,0.50
2022-10-17T07:15:20.436Z,3.00
2022-10-17T07:17:50.297Z,1.75
2022-10-17T07:20:19.925Z,1.50
2022-10-17T07:22:48.538Z,0.50
2022-10-17T07:25:17.073Z,1.25
2022-10-17T07:27:53.040Z,3.28
2022-10-17T07:30:23.318Z,2.65
2022-10-17T07:32:59.806Z,0.98
2022-10-17T07:35:28.395Z,1.08
2022-10-17T07:37:56.904Z,1.48
2022-10-17T07:40:25.593Z,0.57
2022-10-17T07:42:56.536Z,0.82
2022-10-17T07:45:27.584Z,1.23
2022-10-17T07:47:57.347Z,1.08
2022-10-17T07:50:26.202Z,4.13
2022-10-17T07:52:54.621Z,1.33
2022-10-17T07:55:23.050Z,1.30
2022-10-17T07:57:51.480Z,2.08
2022-10-17T08:00:21.427Z,0.47
2022-10-17T08:02:49.902Z,3.42
2022-10-17T08:05:18.458Z,2.60
2022-10-17T08:07:47.182Z,1.33
2022-10-17T08:10:16.996Z,1.65
2022-10-17T08:12:45.394Z,1.27
2022-10-17T08:15:13.856Z,1.48
2022-10-17T08:17:43.630Z,1.15
2022-10-17T08:20:13.195Z,1.42
2022-10-17T08:22:41.719Z,2.15
2022-10-17T08:25:11.117Z,2.08
2022-10-17T08:27:39.676Z,2.67
2022-10-17T08:30:09.509Z,3.60
2022-10-17T08:32:38.018Z,1.40
2022-10-17T08:35:08.667Z,3.63
2022-10-17T08:37:37.171Z,2.70
2022-10-17T08:40:06.593Z,0.93
2022-10-17T08:42:52.038Z,2.40
2022-10-17T08:45:28.508Z,0.80
2022-10-17T08:48:00.268Z,4.50
2022-10-17T08:50:36.298Z,2.35
2022-10-17T08:53:11.163Z,2.72
2022-10-17T08:55:44.540Z,5.07
2022-10-17T08:58:16.274Z,4.18
2022-10-17T09:00:51.401Z,3.95
2022-10-17T09:03:33.735Z,3.65
2022-10-17T09:06:13.739Z,2.90
2022-10-17T09:08:50.594Z,2.83
2022-10-17T09:11:26.170Z,2.85
2022-10-17T09:14:06.113Z,5.57
2022-10-17T09:16:48.514Z,5.03
2022-10-17T09:19:20.680Z,5.70
2022-10-17T09:21:56.323Z,2.08
2022-10-17T09:24:35.435Z,2.17
2022-10-17T09:27:04.714Z,3.63
2022-10-17T09:29:37.919Z,3.03
2022-10-17T09:32:20.507Z,2.08
2022-10-17T09:34:48.884Z,3.55
2022-10-17T09:37:19.047Z,3.85
2022-10-17T09:39:47.517Z,1.52
2022-10-17T09:42:19.279Z,1.33
2022-10-17T09:44:53.121Z,2.72
2022-10-17T09:47:30.816Z,1.95
2022-10-17T09:49:59.422Z,2.50
2022-10-17T09:52:34.164Z,2.20
2022-10-17T09:55:06.525Z,1.77
2022-10-17T09:57:54.407Z,2.80
2022-10-17T10:00:25.697Z,2.42
2022-10-17T10:03:10.197Z,3.55
2022-10-17T10:05:38.650Z,2.88
2022-10-17T10:08:15.830Z,1.35
2022-10-17T10:10:45.593Z,3.13
2022-10-17T10:13:20.316Z,1.35
2022-10-17T10:15:51.189Z,1.90
2022-10-17T10:18:34.749Z,2.03
2022-10-17T10:21:13.270Z,2.03
2022-10-17T10:23:44.279Z,2.17
2022-10-17T10:26:27.373Z,3.25
2022-10-17T10:28:59.847Z,2.13
2022-10-17T10:31:32.965Z,2.20
2022-10-17T10:34:08.088Z,3.22
2022-10-17T10:36:46.814Z,1.90
2022-10-17T10:39:28.966Z,4.10
2022-10-17T10:41:57.790Z,1.85
2022-10-17T10:44:29.317Z,2.55
2022-10-17T10:47:21.553Z,1.27
2022-10-17T10:52:37.007Z,3.28
2022-10-17T10:55:18.696Z,1.90
2022-10-17T10:57:51.222Z,3.45
2022-10-17T11:00:24.215Z,3.58
2022-10-17T11:03:01.876Z,3.00
2022-10-17T11:05:42.094Z,4.93
2022-10-17T11:08:21.328Z,2.38
2022-10-17T11:11:13.751Z,2.42
2022-10-17T11:13:49.596Z,3.78
2022-10-17T11:16:29.770Z,3.75
2022-10-17T11:19:06.012Z,5.95
2022-10-17T11:21:42.629Z,3.95
2022-10-17T11:24:19.167Z,5.50
2022-10-17T11:26:55.108Z,4.75
2022-10-17T11:29:27.886Z,9.77
2022-10-17T11:32:00.459Z,5.72
2022-10-17T11:34:33.215Z,6.95
2022-10-17T11:37:06.530Z,6.15
2022-10-17T11:39:48.448Z,7.55
2022-10-17T11:42:24.586Z,5.88
2022-10-17T11:44:59.765Z,5.07
2022-10-17T11:47:39.237Z,4.28
2022-10-17T11:53:13.244Z,6.05
2022-10-17T11:55:42.858Z,3.95
2022-10-17T11:58:30.415Z,4.50
2022-10-17T12:01:08.766Z,5.38
2022-10-17T12:03:50.416Z,10.98
2022-10-17T12:06:29.569Z,7.53
2022-10-17T12:09:07.562Z,7.78
2022-10-17T12:11:50.737Z,7.88
2022-10-17T12:14:43.925Z,8.85
2022-10-17T12:17:32.914Z,8.55
2022-10-17T12:20:32.338Z,6.55
2022-10-17T12:23:18.364Z,4.97
2022-10-17T12:25:52.586Z,4.60
2022-10-17T12:28:28.078Z,4.18
2022-10-17T12:31:01.036Z,6.05
2022-10-17T12:33:34.118Z,4.88
2022-10-17T12:36:45.665Z,6.15
2022-10-17T12:39:49.211Z,4.65
2022-10-17T12:42:51.603Z,3.50
2022-10-17T12:45:49.212Z,5.63
2022-10-17T12:49:06.548Z,9.25
2022-10-17T12:52:15.858Z,5.18
2022-10-17T12:55:00.222Z,4.93
2022-10-17T12:57:42.099Z,3.72
2022-10-17T13:00:32.736Z,3.75
2022-10-17T13:03:08.066Z,5.05
2022-10-17T13:05:39.284Z,3.45
2022-10-17T13:08:17.052Z,7.38
2022-10-17T13:10:51.551Z,3.35
2022-10-17T13:13:23.338Z,3.95
2022-10-17T13:15:53.786Z,4.88
2022-10-17T13:18:24.815Z,6.45
2022-10-17T13:20:58.902Z,6.15
2022-10-17T13:23:32.854Z,5.25
2022-10-17T13:28:38.425Z,3.38
2022-10-17T13:31:08.396Z,6.78
2022-10-17T13:33:39.886Z,4.28
2022-10-17T13:36:15.640Z,5.05
2022-10-17T13:38:45.606Z,2.38
2022-10-17T13:41:34.722Z,6.70
2022-10-17T13:44:08.617Z,4.55
2022-10-17T13:46:39.965Z,3.22
2022-10-17T13:49:23.204Z,4.00
2022-10-17T13:51:56.168Z,3.47
2022-10-17T13:54:35.069Z,3.95
2022-10-17T13:57:05.307Z,3.38
2022-10-17T13:59:39.919Z,4.40
2022-10-17T14:02:16.209Z,3.78
2022-10-17T14:05:15.174Z,2.95
2022-10-17T14:08:05.441Z,4.80
2022-10-17T14:10:31.688Z,3.60
2022-10-17T14:13:01.849Z,5.07
2022-10-17T14:15:31.810Z,5.07
2022-10-17T14:18:07.497Z,3.97
2022-10-17T14:23:35.605Z,3.25
2022-10-17T14:26:12.640Z,4.28
2022-10-17T14:28:42.972Z,4.38
2022-10-17T14:31:30.068Z,10.82
2022-10-17T14:33:58.900Z,6.65
2022-10-17T14:36:36.704Z,7.55
2022-10-17T14:39:13.297Z,11.63
2022-10-17T14:41:46.826Z,10.82
2022-10-17T14:44:20.627Z,14.88
2022-10-17T14:46:54.000Z,18.83
2022-10-17T14:49:28.881Z,17.05
2022-10-17T14:52:30.955Z,21.58
2022-10-17T14:55:01.636Z,20.02
2022-10-17T14:57:43.808Z,17.77
2022-10-17T15:00:15.970Z,16.80
2022-10-17T15:02:45.273Z,17.90
2022-10-17T15:05:14.125Z,17.50
2022-10-17T15:07:43.509Z,18.50
2022-10-17T15:10:25.464Z,16.27
2022-10-17T15:12:59.167Z,16.10
2022-10-17T15:15:33.923Z,16.27
2022-10-17T15:18:02.983Z,12.73
2022-10-17T15:20:32.220Z,14.70
2022-10-17T15:23:02.997Z,12.75
2022-10-17T15:25:34.152Z,13.75
2022-10-17T15:28:03.975Z,12.07
2022-10-17T15:30:35.886Z,12.70
2022-10-17T15:33:04.554Z,12.35
2022-10-17T15:35:33.063Z,12.82
2022-10-17T15:38:01.479Z,12.07
2022-10-17T15:40:30.946Z,11.18
2022-10-17T15:42:59.385Z,13.15
2022-10-17T15:45:29.245Z,13.13
2022-10-17T15:48:02.428Z,12.88
2022-10-17T15:50:30.941Z,10.45
2022-10-17T15:53:00.213Z,12.10
2022-10-17T15:55:28.984Z,10.73
2022-10-17T15:57:57.496Z,10.25
2022-10-17T16:00:25.991Z,8.50
2022-10-17T16:02:55.851Z,8.57
2022-10-17T16:05:28.397Z,7.18
2022-10-17T16:07:57.841Z,5.65
2022-10-17T16:10:26.731Z,8.40
2022-10-17T16:12:56.160Z,3.53
2022-10-17T16:15:26.556Z,8.63
2022-10-17T16:18:00.527Z,5.45
2022-10-17T16:20:31.970Z,3.40
2022-10-17T16:23:02.906Z,3.92
2022-10-17T16:25:32.930Z,3.00
2022-10-17T16:28:02.009Z,7.07
2022-10-17T16:30:31.591Z,4.95
2022-10-17T16:33:01.504Z,4.55
2022-10-17T16:35:34.806Z,4.30
2022-10-17T16:38:06.344Z,2.05
2022-10-17T16:40:35.527Z,4.22
2022-10-17T16:43:03.952Z,5.10
2022-10-17T16:45:32.497Z,2.05
2022-10-17T16:48:02.306Z,4.38
2022-10-17T16:50:31.159Z,3.83
2022-10-17T16:52:59.646Z,12.23
2022-10-17T16:55:28.289Z,5.07
2022-10-17T16:57:56.931Z,5.70
2022-10-17T17:00:26.223Z,6.47
2022-10-17T17:02:55.088Z,5.13
2022-10-17T17:05:24.943Z,2.40
2022-10-17T17:07:53.401Z,4.20
2022-10-17T17:10:21.862Z,2.72
2022-10-17T17:12:50.307Z,5.95
2022-10-17T17:15:18.784Z,4.10
2022-10-17T17:17:53.590Z,2.58
2022-10-17T17:20:25.251Z,4.65
2022-10-17T17:22:53.687Z,3.65
2022-10-17T17:25:22.757Z,2.90
2022-10-17T17:27:51.224Z,3.50
2022-10-17T17:30:19.800Z,9.02
2022-10-17T17:32:48.461Z,4.18
2022-10-17T17:35:17.273Z,3.15
2022-10-17T17:37:47.077Z,2.40
2022-10-17T17:40:15.568Z,3.58
2022-10-17T17:42:44.197Z,3.13
2022-10-17T17:45:12.951Z,2.70
2022-10-17T17:47:41.451Z,1.65
2022-10-17T17:50:10.511Z,2.88
2022-10-17T17:52:41.822Z,3.85
2022-10-17T17:55:12.012Z,2.00
2022-10-17T17:57:40.449Z,1.60
2022-10-17T18:00:09.997Z,0.80
2022-10-17T18:02:42.138Z,2.50
2022-10-17T18:05:12.838Z,1.55
2022-10-17T18:07:41.357Z,2.30
2022-10-17T18:12:44.398Z,1.75
2022-10-17T18:15:13.534Z,2.17
2022-10-17T18:17:42.565Z,4.25
2022-10-17T18:20:12.031Z,3.15
2022-10-17T18:22:40.495Z,2.03
2022-10-17T18:25:10.797Z,1.30
2022-10-17T18:27:39.330Z,2.63
2022-10-17T18:30:09.358Z,3.00
2022-10-17T18:32:37.872Z,5.65
2022-10-17T18:35:06.992Z,2.03
2022-10-17T18:37:35.593Z,2.38
2022-10-17T18:40:04.233Z,2.97
2022-10-17T18:42:34.047Z,2.58
2022-10-17T18:45:05.516Z,3.35
2022-10-17T18:47:33.980Z,2.65
2022-10-17T18:50:02.461Z,2.13
2022-10-17T18:52:30.974Z,2.85
2022-10-17T18:54:59.454Z,2.90
2022-10-17T18:57:28.279Z,3.22
2022-10-17T18:59:58.312Z,3.22
2022-10-17T19:02:26.840Z,3.00
2022-10-17T19:04:55.393Z,3.42
2022-10-17T19:07:23.910Z,2.75
2022-10-17T19:09:52.404Z,3.10
2022-10-17T19:12:20.925Z,1.67
2022-10-17T19:14:50.846Z,3.63
2022-10-17T19:17:20.727Z,2.35
2022-10-17T19:19:51.801Z,2.55
2022-10-17T19:22:20.286Z,2.05
2022-10-17T19:24:48.721Z,2.75
2022-10-17T19:27:17.190Z,3.17
2022-10-17T19:29:45.632Z,1.60
2022-10-17T19:32:16.933Z,4.18
2022-10-17T19:34:49.226Z,6.18
2022-10-17T19:37:17.709Z,2.08
2022-10-17T19:39:46.138Z,2.92
2022-10-17T19:42:14.585Z,2.47
2022-10-17T19:44:43.068Z,2.78
2022-10-17T19:47:11.517Z,4.78
2022-10-17T19:49:39.992Z,2.40
2022-10-17T19:52:09.801Z,4.10
2022-10-17T19:54:40.470Z,3.58
2022-10-17T19:57:10.532Z,3.20
2022-10-17T19:59:39.202Z,2.05
2022-10-17T20:02:07.660Z,2.45
2022-10-17T20:04:39.437Z,3.95
2022-10-17T20:07:11.937Z,3.63
2022-10-17T20:09:40.401Z,2.22
2022-10-17T20:12:08.833Z,2.65
2022-10-17T20:14:40.846Z,3.05
2022-10-17T20:17:09.626Z,2.78
2022-10-17T20:19:38.032Z,3.50
2022-10-17T20:22:06.479Z,3.38
2022-10-17T20:24:36.304Z,2.63
2022-10-17T20:27:05.017Z,2.97
2022-10-17T20:29:33.518Z,2.70
2022-10-17T20:32:01.952Z,3.58
2022-10-17T20:34:34.738Z,3.50
2022-10-17T20:37:03.521Z,2.65
2022-10-17T20:39:32.057Z,2.65
2022-10-17T20:42:01.915Z,1.77
2022-10-17T20:44:30.553Z,2.95
2022-10-17T20:47:02.322Z,2.72
2022-10-17T20:49:31.627Z,4.70
2022-10-17T20:52:01.043Z,2.42
2022-10-17T20:54:29.765Z,3.03
2022-10-17T20:57:01.051Z,2.70
2022-10-17T20:59:36.073Z,1.98
2022-10-17T21:02:05.551Z,1.90
2022-10-17T21:04:45.770Z,2.53
2022-10-17T21:07:15.754Z,3.25
2022-10-17T21:09:45.331Z,2.28
2022-10-17T21:12:21.557Z,2.45
2022-10-17T21:15:01.407Z,3.33
2022-10-17T21:17:29.829Z,2.78
2022-10-17T21:19:58.355Z,2.78
2022-10-17T21:22:27.173Z,2.50
2022-10-17T21:24:55.732Z,1.58
2022-10-17T21:27:24.183Z,2.88
2022-10-17T21:29:52.607Z,3.03
2022-10-17T21:32:33.574Z,1.80
2022-10-17T21:35:10.894Z,2.05
2022-10-17T21:37:39.370Z,3.17
2022-10-17T21:40:09.308Z,2.28
2022-10-17T21:42:37.736Z,2.90
2022-10-17T21:45:15.042Z,2.72
2022-10-17T21:48:10.786Z,3.03
2022-10-17T21:50:34.199Z,2.78
2022-10-17T21:53:02.667Z,1.27
2022-10-17T21:55:31.250Z,3.25
2022-10-17T21:57:59.685Z,2.78
2022-10-17T22:00:28.125Z,1.73
2022-10-17T22:02:57.867Z,4.90
2022-10-17T22:05:26.377Z,2.45
2022-10-17T22:07:54.845Z,2.30
2022-10-17T22:10:23.280Z,2.75
2022-10-17T22:12:51.715Z,2.47
2022-10-17T22:15:20.204Z,2.88
2022-10-17T22:17:48.629Z,2.00
2022-10-17T22:20:18.656Z,2.42
2022-10-17T22:22:47.056Z,2.53
2022-10-17T22:25:15.743Z,1.85
2022-10-17T22:27:44.139Z,1.83
2022-10-17T22:30:12.988Z,2.03
2022-10-17T22:32:41.420Z,2.33
2022-10-17T22:35:10.621Z,3.00
2022-10-17T22:37:40.559Z,2.85
2022-10-17T22:40:09.411Z,2.28
2022-10-17T22:42:37.821Z,2.15
2022-10-17T22:45:06.960Z,2.25
2022-10-17T22:47:35.356Z,2.35
2022-10-17T22:50:03.996Z,2.90
2022-10-17T22:52:32.712Z,3.50
2022-10-17T22:55:04.440Z,2.80
2022-10-17T22:57:33.018Z,2.45
2022-10-17T23:00:01.448Z,2.58
2022-10-17T23:02:30.296Z,2.13
2022-10-17T23:04:59.461Z,2.13
2022-10-17T23:07:28.355Z,1.63
2022-10-17T23:09:56.747Z,2.15
2022-10-17T23:12:26.692Z,2.72
2022-10-17T23:14:55.113Z,1.90
2022-10-17T23:17:23.591Z,2.17
2022-10-17T23:19:54.221Z,2.80
2022-10-17T23:22:25.450Z,2.15
2022-10-17T23:24:54.340Z,1.25
2022-10-17T23:27:22.853Z,3.00
2022-10-17T23:29:52.655Z,3.28
2022-10-17T23:32:21.241Z,2.42
2022-10-17T23:34:49.841Z,1.98
2022-10-17T23:37:18.589Z,1.50
2022-10-17T23:39:47.071Z,1.80
2022-10-17T23:42:15.534Z,1.80
2022-10-17T23:44:43.915Z,2.17
2022-10-17T23:47:14.465Z,2.28
2022-10-17T23:49:42.929Z,2.58
2022-10-17T23:52:11.477Z,2.58
2022-10-17T23:57:13.362Z,3.03
2022-10-17T23:59:41.757Z,1.88
